sensor_id;sensor_type;location;lat;lon;timestamp;P1;durP1;ratioP1;P2;durP2;ratioP2
7487;SDS011;3785;52.260;4.728;2023-03-30T00:01:12;4.18;;;1.98;;
7487;SDS011;3785;52.260;4.728;2023-03-30T00:04:33;3.97;;;1.85;;
7487;SDS011;3785;52.260;4.728;2023-03-30T00:07:56;2.22;;;1.45;;
7487;SDS011;3785;52.260;4.728;2023-03-30T00:11:17;2.95;;;2.00;;
7487;SDS011;3785;52.260;4.728;2023-03-30T00:14:38;3.03;;;1.80;;
7487;SDS011;3785;52.260;4.728;2023-03-30T00:18:00;3.45;;;1.58;;
7487;SDS011;3785;52.260;4.728;2023-03-30T00:21:21;3.40;;;1.73;;
7487;SDS011;3785;52.260;4.728;2023-03-30T00:24:41;3.15;;;1.80;;
7487;SDS011;3785;52.260;4.728;2023-03-30T00:28:02;3.25;;;1.60;;
7487;SDS011;3785;52.260;4.728;2023-03-30T00:31:22;5.22;;;1.75;;
7487;SDS011;3785;52.260;4.728;2023-03-30T00:34:43;4.60;;;1.60;;
7487;SDS011;3785;52.260;4.728;2023-03-30T00:38:04;4.03;;;1.23;;
7487;SDS011;3785;52.260;4.728;2023-03-30T00:41:24;3.70;;;1.40;;
7487;SDS011;3785;52.260;4.728;2023-03-30T00:48:29;3.42;;;0.98;;
7487;SDS011;3785;52.260;4.728;2023-03-30T00:51:53;2.22;;;1.00;;
7487;SDS011;3785;52.260;4.728;2023-03-30T00:55:13;2.50;;;1.02;;
7487;SDS011;3785;52.260;4.728;2023-03-30T00:58:34;3.10;;;1.25;;
7487;SDS011;3785;52.260;4.728;2023-03-30T01:01:56;3.20;;;1.10;;
7487;SDS011;3785;52.260;4.728;2023-03-30T01:05:17;4.07;;;1.15;;
7487;SDS011;3785;52.260;4.728;2023-03-30T01:08:38;3.15;;;0.88;;
7487;SDS011;3785;52.260;4.728;2023-03-30T01:12:01;3.88;;;1.13;;
7487;SDS011;3785;52.260;4.728;2023-03-30T01:15:23;2.95;;;1.10;;
7487;SDS011;3785;52.260;4.728;2023-03-30T01:30:13;1.73;;;0.80;;
7487;SDS011;3785;52.260;4.728;2023-03-30T01:33:50;3.65;;;1.13;;
7487;SDS011;3785;52.260;4.728;2023-03-30T01:40:52;2.47;;;1.08;;
7487;SDS011;3785;52.260;4.728;2023-03-30T01:58:48;3.03;;;0.90;;
7487;SDS011;3785;52.260;4.728;2023-03-30T02:02:14;3.92;;;1.05;;
7487;SDS011;3785;52.260;4.728;2023-03-30T02:05:36;2.22;;;0.80;;
7487;SDS011;3785;52.260;4.728;2023-03-30T02:08:57;3.53;;;1.27;;
7487;SDS011;3785;52.260;4.728;2023-03-30T02:12:19;3.13;;;0.98;;
7487;SDS011;3785;52.260;4.728;2023-03-30T02:15:44;2.80;;;1.25;;
7487;SDS011;3785;52.260;4.728;2023-03-30T02:19:07;1.50;;;0.90;;
7487;SDS011;3785;52.260;4.728;2023-03-30T02:22:28;3.67;;;1.00;;
7487;SDS011;3785;52.260;4.728;2023-03-30T02:25:48;4.65;;;1.10;;
7487;SDS011;3785;52.260;4.728;2023-03-30T02:29:09;4.65;;;1.27;;
7487;SDS011;3785;52.260;4.728;2023-03-30T02:32:49;2.70;;;1.08;;
7487;SDS011;3785;52.260;4.728;2023-03-30T02:47:20;3.15;;;1.20;;
7487;SDS011;3785;52.260;4.728;2023-03-30T03:01:27;3.10;;;1.17;;
7487;SDS011;3785;52.260;4.728;2023-03-30T03:04:51;2.65;;;0.82;;
7487;SDS011;3785;52.260;4.728;2023-03-30T03:08:13;2.17;;;0.93;;
7487;SDS011;3785;52.260;4.728;2023-03-30T03:11:34;3.85;;;1.00;;
7487;SDS011;3785;52.260;4.728;2023-03-30T03:14:55;2.33;;;1.00;;
7487;SDS011;3785;52.260;4.728;2023-03-30T03:18:15;3.83;;;1.00;;
7487;SDS011;3785;52.260;4.728;2023-03-30T03:21:37;1.52;;;0.90;;
7487;SDS011;3785;52.260;4.728;2023-03-30T03:24:58;2.42;;;0.80;;
7487;SDS011;3785;52.260;4.728;2023-03-30T03:28:18;3.63;;;1.30;;
7487;SDS011;3785;52.260;4.728;2023-03-30T03:31:39;2.35;;;0.80;;
7487;SDS011;3785;52.260;4.728;2023-03-30T03:34:59;2.08;;;0.80;;
7487;SDS011;3785;52.260;4.728;2023-03-30T03:38:20;2.97;;;0.98;;
7487;SDS011;3785;52.260;4.728;2023-03-30T03:41:41;2.90;;;0.85;;
7487;SDS011;3785;52.260;4.728;2023-03-30T03:45:01;3.22;;;1.13;;
7487;SDS011;3785;52.260;4.728;2023-03-30T03:48:23;2.15;;;0.90;;
7487;SDS011;3785;52.260;4.728;2023-03-30T03:51:44;5.20;;;1.35;;
7487;SDS011;3785;52.260;4.728;2023-03-30T03:55:04;3.15;;;1.30;;
7487;SDS011;3785;52.260;4.728;2023-03-30T03:58:26;4.53;;;0.93;;
7487;SDS011;3785;52.260;4.728;2023-03-30T04:01:47;3.20;;;0.90;;
7487;SDS011;3785;52.260;4.728;2023-03-30T04:05:08;4.43;;;0.85;;
7487;SDS011;3785;52.260;4.728;2023-03-30T04:08:29;4.95;;;0.98;;
7487;SDS011;3785;52.260;4.728;2023-03-30T04:11:49;4.55;;;1.05;;
7487;SDS011;3785;52.260;4.728;2023-03-30T04:15:10;4.78;;;1.10;;
7487;SDS011;3785;52.260;4.728;2023-03-30T04:18:31;3.33;;;0.90;;
7487;SDS011;3785;52.260;4.728;2023-03-30T04:21:54;4.10;;;0.85;;
7487;SDS011;3785;52.260;4.728;2023-03-30T04:25:18;2.60;;;0.95;;
7487;SDS011;3785;52.260;4.728;2023-03-30T04:28:40;4.43;;;1.10;;
7487;SDS011;3785;52.260;4.728;2023-03-30T04:32:01;4.32;;;1.02;;
7487;SDS011;3785;52.260;4.728;2023-03-30T04:35:23;5.25;;;1.23;;
7487;SDS011;3785;52.260;4.728;2023-03-30T04:38:44;5.50;;;1.20;;
7487;SDS011;3785;52.260;4.728;2023-03-30T04:42:18;5.75;;;1.38;;
7487;SDS011;3785;52.260;4.728;2023-03-30T04:45:39;4.63;;;1.40;;
7487;SDS011;3785;52.260;4.728;2023-03-30T04:48:59;5.32;;;1.40;;
7487;SDS011;3785;52.260;4.728;2023-03-30T04:52:20;4.07;;;1.00;;
7487;SDS011;3785;52.260;4.728;2023-03-30T04:55:45;5.15;;;1.27;;
7487;SDS011;3785;52.260;4.728;2023-03-30T04:59:06;4.93;;;1.30;;
7487;SDS011;3785;52.260;4.728;2023-03-30T05:02:27;8.90;;;1.38;;
7487;SDS011;3785;52.260;4.728;2023-03-30T05:05:47;6.15;;;1.77;;
7487;SDS011;3785;52.260;4.728;2023-03-30T05:09:08;7.13;;;1.70;;
7487;SDS011;3785;52.260;4.728;2023-03-30T05:12:28;5.90;;;1.35;;
7487;SDS011;3785;52.260;4.728;2023-03-30T05:15:52;3.28;;;1.30;;
7487;SDS011;3785;52.260;4.728;2023-03-30T05:19:14;3.47;;;1.52;;
7487;SDS011;3785;52.260;4.728;2023-03-30T05:22:35;5.55;;;1.27;;
7487;SDS011;3785;52.260;4.728;2023-03-30T05:25:56;4.60;;;1.65;;
7487;SDS011;3785;52.260;4.728;2023-03-30T05:29:16;2.85;;;1.15;;
7487;SDS011;3785;52.260;4.728;2023-03-30T05:32:37;6.40;;;1.90;;
7487;SDS011;3785;52.260;4.728;2023-03-30T05:35:57;5.85;;;1.35;;
7487;SDS011;3785;52.260;4.728;2023-03-30T05:39:18;5.05;;;1.13;;
7487;SDS011;3785;52.260;4.728;2023-03-30T05:42:39;7.43;;;1.67;;
7487;SDS011;3785;52.260;4.728;2023-03-30T05:45:59;6.63;;;2.47;;
7487;SDS011;3785;52.260;4.728;2023-03-30T05:49:21;5.55;;;1.98;;
7487;SDS011;3785;52.260;4.728;2023-03-30T05:52:42;7.60;;;1.80;;
7487;SDS011;3785;52.260;4.728;2023-03-30T05:56:02;9.30;;;1.98;;
7487;SDS011;3785;52.260;4.728;2023-03-30T05:59:23;6.63;;;1.80;;
7487;SDS011;3785;52.260;4.728;2023-03-30T06:02:44;7.40;;;1.70;;
7487;SDS011;3785;52.260;4.728;2023-03-30T06:06:05;7.38;;;1.83;;
7487;SDS011;3785;52.260;4.728;2023-03-30T06:09:26;6.68;;;1.45;;
7487;SDS011;3785;52.260;4.728;2023-03-30T06:12:47;9.30;;;1.50;;
7487;SDS011;3785;52.260;4.728;2023-03-30T06:16:08;8.52;;;1.92;;
7487;SDS011;3785;52.260;4.728;2023-03-30T06:19:28;8.68;;;2.25;;
7487;SDS011;3785;52.260;4.728;2023-03-30T06:22:49;12.85;;;1.70;;
7487;SDS011;3785;52.260;4.728;2023-03-30T06:26:10;7.50;;;1.70;;
7487;SDS011;3785;52.260;4.728;2023-03-30T06:29:31;12.32;;;2.33;;
7487;SDS011;3785;52.260;4.728;2023-03-30T06:32:51;7.30;;;1.52;;
7487;SDS011;3785;52.260;4.728;2023-03-30T06:36:12;7.20;;;1.70;;
7487;SDS011;3785;52.260;4.728;2023-03-30T06:39:33;11.95;;;2.08;;
7487;SDS011;3785;52.260;4.728;2023-03-30T06:42:56;11.48;;;1.98;;
7487;SDS011;3785;52.260;4.728;2023-03-30T06:46:17;3.30;;;1.42;;
7487;SDS011;3785;52.260;4.728;2023-03-30T06:49:37;6.35;;;1.80;;
7487;SDS011;3785;52.260;4.728;2023-03-30T06:52:58;10.57;;;1.92;;
7487;SDS011;3785;52.260;4.728;2023-03-30T06:56:18;8.60;;;1.80;;
7487;SDS011;3785;52.260;4.728;2023-03-30T06:59:40;8.80;;;1.90;;
7487;SDS011;3785;52.260;4.728;2023-03-30T07:03:00;6.22;;;1.58;;
7487;SDS011;3785;52.260;4.728;2023-03-30T07:06:21;3.35;;;1.23;;
7487;SDS011;3785;52.260;4.728;2023-03-30T07:09:41;8.77;;;1.83;;
7487;SDS011;3785;52.260;4.728;2023-03-30T07:13:02;9.48;;;2.17;;
7487;SDS011;3785;52.260;4.728;2023-03-30T07:16:23;8.88;;;2.08;;
7487;SDS011;3785;52.260;4.728;2023-03-30T07:19:44;5.70;;;1.67;;
7487;SDS011;3785;52.260;4.728;2023-03-30T07:23:05;9.23;;;1.58;;
7487;SDS011;3785;52.260;4.728;2023-03-30T07:26:26;8.23;;;2.15;;
7487;SDS011;3785;52.260;4.728;2023-03-30T07:29:47;7.00;;;2.08;;
7487;SDS011;3785;52.260;4.728;2023-03-30T07:33:08;9.38;;;1.90;;
7487;SDS011;3785;52.260;4.728;2023-03-30T07:36:29;6.78;;;2.10;;
7487;SDS011;3785;52.260;4.728;2023-03-30T07:39:49;8.10;;;1.88;;
7487;SDS011;3785;52.260;4.728;2023-03-30T07:43:10;11.20;;;1.90;;
7487;SDS011;3785;52.260;4.728;2023-03-30T07:46:31;5.47;;;1.27;;
7487;SDS011;3785;52.260;4.728;2023-03-30T07:49:51;5.13;;;1.45;;
7487;SDS011;3785;52.260;4.728;2023-03-30T07:53:12;6.32;;;2.08;;
7487;SDS011;3785;52.260;4.728;2023-03-30T07:56:32;8.57;;;1.98;;
7487;SDS011;3785;52.260;4.728;2023-03-30T07:59:57;6.25;;;1.83;;
7487;SDS011;3785;52.260;4.728;2023-03-30T08:03:18;10.13;;;1.60;;
7487;SDS011;3785;52.260;4.728;2023-03-30T08:06:41;6.30;;;1.70;;
7487;SDS011;3785;52.260;4.728;2023-03-30T08:10:01;7.15;;;1.70;;
7487;SDS011;3785;52.260;4.728;2023-03-30T08:13:22;4.80;;;1.55;;
7487;SDS011;3785;52.260;4.728;2023-03-30T08:16:43;8.75;;;2.10;;
7487;SDS011;3785;52.260;4.728;2023-03-30T08:20:03;12.43;;;2.08;;
7487;SDS011;3785;52.260;4.728;2023-03-30T08:23:29;10.75;;;2.13;;
7487;SDS011;3785;52.260;4.728;2023-03-30T08:26:50;9.15;;;2.10;;
7487;SDS011;3785;52.260;4.728;2023-03-30T08:30:11;11.80;;;2.58;;
7487;SDS011;3785;52.260;4.728;2023-03-30T08:33:35;10.43;;;2.60;;
7487;SDS011;3785;52.260;4.728;2023-03-30T08:36:55;11.73;;;1.70;;
7487;SDS011;3785;52.260;4.728;2023-03-30T08:40:17;9.35;;;2.13;;
7487;SDS011;3785;52.260;4.728;2023-03-30T08:43:40;12.70;;;2.45;;
7487;SDS011;3785;52.260;4.728;2023-03-30T08:47:07;9.18;;;1.75;;
7487;SDS011;3785;52.260;4.728;2023-03-30T08:50:33;7.32;;;1.80;;
7487;SDS011;3785;52.260;4.728;2023-03-30T08:53:55;9.60;;;1.90;;
7487;SDS011;3785;52.260;4.728;2023-03-30T09:11:36;8.15;;;2.13;;
7487;SDS011;3785;52.260;4.728;2023-03-30T09:14:59;10.15;;;2.30;;
7487;SDS011;3785;52.260;4.728;2023-03-30T09:18:36;12.80;;;2.45;;
7487;SDS011;3785;52.260;4.728;2023-03-30T09:21:57;9.23;;;2.10;;
7487;SDS011;3785;52.260;4.728;2023-03-30T09:25:19;10.30;;;2.05;;
7487;SDS011;3785;52.260;4.728;2023-03-30T09:32:31;8.90;;;2.38;;
7487;SDS011;3785;52.260;4.728;2023-03-30T09:36:02;9.77;;;2.20;;
7487;SDS011;3785;52.260;4.728;2023-03-30T09:39:29;11.23;;;2.60;;
7487;SDS011;3785;52.260;4.728;2023-03-30T09:42:54;12.02;;;2.38;;
7487;SDS011;3785;52.260;4.728;2023-03-30T09:46:20;8.75;;;1.98;;
7487;SDS011;3785;52.260;4.728;2023-03-30T09:49:41;8.63;;;1.92;;
7487;SDS011;3785;52.260;4.728;2023-03-30T09:53:02;9.55;;;2.15;;
7487;SDS011;3785;52.260;4.728;2023-03-30T09:56:39;9.40;;;1.80;;
7487;SDS011;3785;52.260;4.728;2023-03-30T10:00:21;12.30;;;2.95;;
7487;SDS011;3785;52.260;4.728;2023-03-30T10:07:46;11.45;;;1.70;;
7487;SDS011;3785;52.260;4.728;2023-03-30T10:11:12;6.95;;;1.75;;
7487;SDS011;3785;52.260;4.728;2023-03-30T10:14:33;11.10;;;2.20;;
7487;SDS011;3785;52.260;4.728;2023-03-30T10:17:54;10.77;;;2.28;;
7487;SDS011;3785;52.260;4.728;2023-03-30T10:21:18;11.82;;;2.55;;
7487;SDS011;3785;52.260;4.728;2023-03-30T10:24:47;8.13;;;2.05;;
7487;SDS011;3785;52.260;4.728;2023-03-30T10:28:17;10.77;;;2.17;;
7487;SDS011;3785;52.260;4.728;2023-03-30T10:31:49;9.68;;;1.42;;
7487;SDS011;3785;52.260;4.728;2023-03-30T10:35:19;7.53;;;1.98;;
7487;SDS011;3785;52.260;4.728;2023-03-30T10:38:42;5.88;;;1.92;;
7487;SDS011;3785;52.260;4.728;2023-03-30T10:42:02;7.43;;;1.92;;
7487;SDS011;3785;52.260;4.728;2023-03-30T10:45:28;11.90;;;2.10;;
7487;SDS011;3785;52.260;4.728;2023-03-30T10:48:58;12.40;;;2.60;;
7487;SDS011;3785;52.260;4.728;2023-03-30T10:56:15;7.28;;;1.48;;
7487;SDS011;3785;52.260;4.728;2023-03-30T11:03:24;8.95;;;1.85;;
7487;SDS011;3785;52.260;4.728;2023-03-30T11:06:51;8.45;;;2.60;;
7487;SDS011;3785;52.260;4.728;2023-03-30T11:10:14;8.82;;;2.47;;
7487;SDS011;3785;52.260;4.728;2023-03-30T11:13:40;9.35;;;2.05;;
7487;SDS011;3785;52.260;4.728;2023-03-30T11:21:39;16.10;;;3.22;;
7487;SDS011;3785;52.260;4.728;2023-03-30T11:25:23;8.82;;;2.17;;
7487;SDS011;3785;52.260;4.728;2023-03-30T11:32:28;10.05;;;2.00;;
7487;SDS011;3785;52.260;4.728;2023-03-30T11:36:54;10.00;;;2.10;;
7487;SDS011;3785;52.260;4.728;2023-03-30T11:39:57;9.82;;;2.45;;
7487;SDS011;3785;52.260;4.728;2023-03-30T11:43:22;8.60;;;2.03;;
7487;SDS011;3785;52.260;4.728;2023-03-30T11:47:09;10.52;;;1.92;;
7487;SDS011;3785;52.260;4.728;2023-03-30T11:55:07;9.43;;;2.00;;
7487;SDS011;3785;52.260;4.728;2023-03-30T11:58:41;11.73;;;2.53;;
7487;SDS011;3785;52.260;4.728;2023-03-30T12:02:16;10.15;;;2.67;;
7487;SDS011;3785;52.260;4.728;2023-03-30T12:09:53;11.40;;;2.78;;
7487;SDS011;3785;52.260;4.728;2023-03-30T12:13:18;10.45;;;2.65;;
7487;SDS011;3785;52.260;4.728;2023-03-30T12:16:40;9.30;;;2.15;;
7487;SDS011;3785;52.260;4.728;2023-03-30T12:27:28;8.25;;;2.10;;
7487;SDS011;3785;52.260;4.728;2023-03-30T12:30:59;9.30;;;2.30;;
7487;SDS011;3785;52.260;4.728;2023-03-30T12:34:21;9.35;;;1.90;;
7487;SDS011;3785;52.260;4.728;2023-03-30T12:37:43;7.43;;;1.98;;
7487;SDS011;3785;52.260;4.728;2023-03-30T12:41:08;7.55;;;2.40;;
7487;SDS011;3785;52.260;4.728;2023-03-30T12:44:37;9.93;;;2.15;;
7487;SDS011;3785;52.260;4.728;2023-03-30T12:51:56;13.23;;;3.03;;
7487;SDS011;3785;52.260;4.728;2023-03-30T12:55:42;8.93;;;2.03;;
7487;SDS011;3785;52.260;4.728;2023-03-30T12:59:11;7.72;;;2.10;;
7487;SDS011;3785;52.260;4.728;2023-03-30T13:06:45;8.30;;;2.00;;
7487;SDS011;3785;52.260;4.728;2023-03-30T13:13:58;10.73;;;2.33;;
7487;SDS011;3785;52.260;4.728;2023-03-30T13:17:24;8.57;;;2.10;;
7487;SDS011;3785;52.260;4.728;2023-03-30T13:27:55;12.60;;;2.40;;
7487;SDS011;3785;52.260;4.728;2023-03-30T13:39:05;7.65;;;2.03;;
7487;SDS011;3785;52.260;4.728;2023-03-30T13:49:59;9.15;;;2.38;;
7487;SDS011;3785;52.260;4.728;2023-03-30T13:53:22;8.65;;;2.33;;
7487;SDS011;3785;52.260;4.728;2023-03-30T13:56:47;9.38;;;1.60;;
7487;SDS011;3785;52.260;4.728;2023-03-30T14:04:16;8.32;;;2.45;;
7487;SDS011;3785;52.260;4.728;2023-03-30T14:07:39;7.40;;;1.92;;
7487;SDS011;3785;52.260;4.728;2023-03-30T14:11:02;11.40;;;2.28;;
7487;SDS011;3785;52.260;4.728;2023-03-30T14:17:50;9.85;;;2.00;;
7487;SDS011;3785;52.260;4.728;2023-03-30T14:21:17;10.15;;;2.22;;
7487;SDS011;3785;52.260;4.728;2023-03-30T14:24:39;10.07;;;2.45;;
7487;SDS011;3785;52.260;4.728;2023-03-30T14:28:19;9.18;;;2.15;;
7487;SDS011;3785;52.260;4.728;2023-03-30T14:31:42;6.43;;;1.75;;
7487;SDS011;3785;52.260;4.728;2023-03-30T14:35:03;8.38;;;2.10;;
7487;SDS011;3785;52.260;4.728;2023-03-30T14:38:28;15.70;;;2.10;;
7487;SDS011;3785;52.260;4.728;2023-03-30T14:41:56;10.50;;;2.83;;
7487;SDS011;3785;52.260;4.728;2023-03-30T14:45:37;12.57;;;3.00;;
7487;SDS011;3785;52.260;4.728;2023-03-30T14:48:58;14.07;;;2.53;;
7487;SDS011;3785;52.260;4.728;2023-03-30T14:52:19;13.60;;;2.22;;
7487;SDS011;3785;52.260;4.728;2023-03-30T14:55:42;8.73;;;2.08;;
7487;SDS011;3785;52.260;4.728;2023-03-30T14:59:02;4.80;;;1.77;;
7487;SDS011;3785;52.260;4.728;2023-03-30T15:02:28;11.57;;;2.13;;
7487;SDS011;3785;52.260;4.728;2023-03-30T15:05:50;6.55;;;1.83;;
7487;SDS011;3785;52.260;4.728;2023-03-30T15:09:17;12.02;;;2.30;;
7487;SDS011;3785;52.260;4.728;2023-03-30T15:12:39;10.30;;;2.22;;
7487;SDS011;3785;52.260;4.728;2023-03-30T15:16:02;8.10;;;2.13;;
7487;SDS011;3785;52.260;4.728;2023-03-30T15:19:25;10.27;;;2.47;;
7487;SDS011;3785;52.260;4.728;2023-03-30T15:22:48;8.73;;;1.95;;
7487;SDS011;3785;52.260;4.728;2023-03-30T15:26:10;14.40;;;2.30;;
7487;SDS011;3785;52.260;4.728;2023-03-30T15:29:32;5.65;;;1.80;;
7487;SDS011;3785;52.260;4.728;2023-03-30T15:32:53;17.10;;;2.58;;
7487;SDS011;3785;52.260;4.728;2023-03-30T15:36:22;12.65;;;2.50;;
7487;SDS011;3785;52.260;4.728;2023-03-30T15:47:17;9.05;;;1.88;;
7487;SDS011;3785;52.260;4.728;2023-03-30T15:50:38;10.70;;;2.30;;
7487;SDS011;3785;52.260;4.728;2023-03-30T15:54:06;7.18;;;1.98;;
7487;SDS011;3785;52.260;4.728;2023-03-30T15:57:32;10.95;;;2.03;;
7487;SDS011;3785;52.260;4.728;2023-03-30T16:00:54;6.95;;;1.70;;
7487;SDS011;3785;52.260;4.728;2023-03-30T16:04:16;8.60;;;2.35;;
7487;SDS011;3785;52.260;4.728;2023-03-30T16:07:38;10.80;;;2.15;;
7487;SDS011;3785;52.260;4.728;2023-03-30T16:11:01;8.50;;;1.95;;
7487;SDS011;3785;52.260;4.728;2023-03-30T16:14:21;7.43;;;1.85;;
7487;SDS011;3785;52.260;4.728;2023-03-30T16:17:42;6.75;;;1.48;;
7487;SDS011;3785;52.260;4.728;2023-03-30T16:21:03;7.90;;;1.83;;
7487;SDS011;3785;52.260;4.728;2023-03-30T16:24:24;5.13;;;1.70;;
7487;SDS011;3785;52.260;4.728;2023-03-30T16:27:44;6.90;;;1.65;;
7487;SDS011;3785;52.260;4.728;2023-03-30T16:31:06;7.82;;;1.85;;
7487;SDS011;3785;52.260;4.728;2023-03-30T16:34:32;6.45;;;2.25;;
7487;SDS011;3785;52.260;4.728;2023-03-30T16:37:53;4.32;;;1.30;;
7487;SDS011;3785;52.260;4.728;2023-03-30T16:41:18;8.05;;;1.70;;
7487;SDS011;3785;52.260;4.728;2023-03-30T16:44:39;5.72;;;1.45;;
7487;SDS011;3785;52.260;4.728;2023-03-30T16:48:00;5.40;;;1.42;;
7487;SDS011;3785;52.260;4.728;2023-03-30T16:51:21;8.90;;;1.70;;
7487;SDS011;3785;52.260;4.728;2023-03-30T16:54:43;5.40;;;1.25;;
7487;SDS011;3785;52.260;4.728;2023-03-30T16:58:03;6.22;;;1.50;;
7487;SDS011;3785;52.260;4.728;2023-03-30T17:01:25;6.20;;;1.80;;
7487;SDS011;3785;52.260;4.728;2023-03-30T17:04:47;7.05;;;1.77;;
7487;SDS011;3785;52.260;4.728;2023-03-30T17:12:09;7.60;;;1.60;;
7487;SDS011;3785;52.260;4.728;2023-03-30T17:15:30;7.63;;;1.80;;
7487;SDS011;3785;52.260;4.728;2023-03-30T17:18:50;7.28;;;1.73;;
7487;SDS011;3785;52.260;4.728;2023-03-30T17:22:11;8.75;;;1.30;;
7487;SDS011;3785;52.260;4.728;2023-03-30T17:25:32;5.97;;;1.67;;
7487;SDS011;3785;52.260;4.728;2023-03-30T17:28:55;7.97;;;2.25;;
7487;SDS011;3785;52.260;4.728;2023-03-30T17:32:15;13.93;;;1.85;;
7487;SDS011;3785;52.260;4.728;2023-03-30T17:35:36;5.65;;;1.92;;
7487;SDS011;3785;52.260;4.728;2023-03-30T17:38:57;7.18;;;1.35;;
7487;SDS011;3785;52.260;4.728;2023-03-30T17:42:18;8.60;;;1.23;;
7487;SDS011;3785;52.260;4.728;2023-03-30T17:45:39;7.85;;;1.50;;
7487;SDS011;3785;52.260;4.728;2023-03-30T17:49:00;9.25;;;1.48;;
7487;SDS011;3785;52.260;4.728;2023-03-30T17:52:21;5.82;;;2.25;;
7487;SDS011;3785;52.260;4.728;2023-03-30T17:55:48;3.65;;;1.10;;
7487;SDS011;3785;52.260;4.728;2023-03-30T17:59:11;7.65;;;1.83;;
7487;SDS011;3785;52.260;4.728;2023-03-30T18:02:31;6.00;;;1.42;;
7487;SDS011;3785;52.260;4.728;2023-03-30T18:05:52;7.53;;;2.13;;
7487;SDS011;3785;52.260;4.728;2023-03-30T18:09:13;8.75;;;2.13;;
7487;SDS011;3785;52.260;4.728;2023-03-30T18:12:37;5.60;;;1.33;;
7487;SDS011;3785;52.260;4.728;2023-03-30T18:15:58;9.23;;;2.05;;
7487;SDS011;3785;52.260;4.728;2023-03-30T18:19:19;11.50;;;1.75;;
7487;SDS011;3785;52.260;4.728;2023-03-30T18:22:40;10.00;;;2.38;;
7487;SDS011;3785;52.260;4.728;2023-03-30T18:26:01;5.30;;;1.48;;
7487;SDS011;3785;52.260;4.728;2023-03-30T18:29:24;6.03;;;1.60;;
7487;SDS011;3785;52.260;4.728;2023-03-30T18:32:44;6.82;;;1.95;;
7487;SDS011;3785;52.260;4.728;2023-03-30T18:36:08;7.00;;;1.33;;
7487;SDS011;3785;52.260;4.728;2023-03-30T18:39:31;6.68;;;1.75;;
7487;SDS011;3785;52.260;4.728;2023-03-30T18:42:52;9.40;;;1.75;;
7487;SDS011;3785;52.260;4.728;2023-03-30T18:46:13;8.45;;;1.83;;
7487;SDS011;3785;52.260;4.728;2023-03-30T18:49:33;4.82;;;1.50;;
7487;SDS011;3785;52.260;4.728;2023-03-30T18:52:54;10.35;;;2.17;;
7487;SDS011;3785;52.260;4.728;2023-03-30T18:56:15;7.68;;;1.73;;
7487;SDS011;3785;52.260;4.728;2023-03-30T18:59:35;7.57;;;2.05;;
7487;SDS011;3785;52.260;4.728;2023-03-30T19:02:56;9.50;;;2.42;;
7487;SDS011;3785;52.260;4.728;2023-03-30T19:06:18;8.25;;;2.03;;
7487;SDS011;3785;52.260;4.728;2023-03-30T19:09:41;12.63;;;2.10;;
7487;SDS011;3785;52.260;4.728;2023-03-30T19:13:04;11.75;;;2.40;;
7487;SDS011;3785;52.260;4.728;2023-03-30T19:16:24;15.27;;;2.60;;
7487;SDS011;3785;52.260;4.728;2023-03-30T19:19:45;6.55;;;2.33;;
7487;SDS011;3785;52.260;4.728;2023-03-30T19:23:06;6.80;;;1.75;;
7487;SDS011;3785;52.260;4.728;2023-03-30T19:26:29;9.40;;;1.70;;
7487;SDS011;3785;52.260;4.728;2023-03-30T19:29:50;10.27;;;2.60;;
7487;SDS011;3785;52.260;4.728;2023-03-30T19:33:12;9.23;;;2.72;;
7487;SDS011;3785;52.260;4.728;2023-03-30T19:36:35;8.55;;;2.40;;
7487;SDS011;3785;52.260;4.728;2023-03-30T19:39:55;5.57;;;2.10;;
7487;SDS011;3785;52.260;4.728;2023-03-30T19:43:16;6.05;;;1.83;;
7487;SDS011;3785;52.260;4.728;2023-03-30T19:46:36;6.65;;;1.67;;
7487;SDS011;3785;52.260;4.728;2023-03-30T19:49:57;9.02;;;2.10;;
7487;SDS011;3785;52.260;4.728;2023-03-30T19:53:18;7.90;;;2.03;;
7487;SDS011;3785;52.260;4.728;2023-03-30T19:56:38;11.00;;;1.75;;
7487;SDS011;3785;52.260;4.728;2023-03-30T19:59:59;10.68;;;2.20;;
7487;SDS011;3785;52.260;4.728;2023-03-30T20:03:20;10.52;;;2.03;;
7487;SDS011;3785;52.260;4.728;2023-03-30T20:06:40;10.48;;;1.90;;
7487;SDS011;3785;52.260;4.728;2023-03-30T20:10:02;7.72;;;1.88;;
7487;SDS011;3785;52.260;4.728;2023-03-30T20:13:23;10.23;;;2.17;;
7487;SDS011;3785;52.260;4.728;2023-03-30T20:16:43;6.07;;;1.95;;
7487;SDS011;3785;52.260;4.728;2023-03-30T20:20:05;7.55;;;2.13;;
7487;SDS011;3785;52.260;4.728;2023-03-30T20:23:27;7.53;;;1.33;;
7487;SDS011;3785;52.260;4.728;2023-03-30T20:26:48;16.15;;;2.13;;
7487;SDS011;3785;52.260;4.728;2023-03-30T20:30:09;9.30;;;1.40;;
7487;SDS011;3785;52.260;4.728;2023-03-30T20:33:33;8.18;;;2.15;;
7487;SDS011;3785;52.260;4.728;2023-03-30T20:36:54;15.05;;;2.17;;
7487;SDS011;3785;52.260;4.728;2023-03-30T20:40:15;6.18;;;1.50;;
7487;SDS011;3785;52.260;4.728;2023-03-30T20:43:35;7.13;;;2.10;;
7487;SDS011;3785;52.260;4.728;2023-03-30T20:47:04;7.75;;;1.77;;
7487;SDS011;3785;52.260;4.728;2023-03-30T20:50:27;12.35;;;2.00;;
7487;SDS011;3785;52.260;4.728;2023-03-30T20:53:48;7.47;;;1.73;;
7487;SDS011;3785;52.260;4.728;2023-03-30T20:57:09;10.25;;;1.83;;
7487;SDS011;3785;52.260;4.728;2023-03-30T21:00:30;10.88;;;1.88;;
7487;SDS011;3785;52.260;4.728;2023-03-30T21:03:54;7.15;;;1.75;;
7487;SDS011;3785;52.260;4.728;2023-03-30T21:07:18;7.70;;;1.48;;
7487;SDS011;3785;52.260;4.728;2023-03-30T21:10:40;8.50;;;2.10;;
7487;SDS011;3785;52.260;4.728;2023-03-30T21:14:01;13.13;;;1.98;;
7487;SDS011;3785;52.260;4.728;2023-03-30T21:17:22;8.63;;;1.98;;
7487;SDS011;3785;52.260;4.728;2023-03-30T21:20:42;9.95;;;2.13;;
7487;SDS011;3785;52.260;4.728;2023-03-30T21:24:03;8.07;;;2.50;;
7487;SDS011;3785;52.260;4.728;2023-03-30T21:27:24;13.02;;;2.50;;
7487;SDS011;3785;52.260;4.728;2023-03-30T21:30:47;9.20;;;1.90;;
7487;SDS011;3785;52.260;4.728;2023-03-30T21:34:07;14.07;;;2.08;;
7487;SDS011;3785;52.260;4.728;2023-03-30T21:37:29;11.95;;;2.50;;
7487;SDS011;3785;52.260;4.728;2023-03-30T21:44:33;9.20;;;1.90;;
7487;SDS011;3785;52.260;4.728;2023-03-30T21:47:55;9.25;;;2.60;;
7487;SDS011;3785;52.260;4.728;2023-03-30T21:51:19;9.90;;;2.08;;
7487;SDS011;3785;52.260;4.728;2023-03-30T21:54:41;10.55;;;2.75;;
7487;SDS011;3785;52.260;4.728;2023-03-30T21:58:01;11.95;;;2.35;;
7487;SDS011;3785;52.260;4.728;2023-03-30T22:01:22;10.45;;;1.90;;
7487;SDS011;3785;52.260;4.728;2023-03-30T22:04:43;6.72;;;1.88;;
7487;SDS011;3785;52.260;4.728;2023-03-30T22:08:03;7.57;;;1.70;;
7487;SDS011;3785;52.260;4.728;2023-03-30T22:11:24;10.65;;;1.95;;
7487;SDS011;3785;52.260;4.728;2023-03-30T22:14:45;8.90;;;1.65;;
7487;SDS011;3785;52.260;4.728;2023-03-30T22:18:06;12.80;;;2.45;;
7487;SDS011;3785;52.260;4.728;2023-03-30T22:21:27;9.23;;;1.83;;
7487;SDS011;3785;52.260;4.728;2023-03-30T22:24:53;8.88;;;1.77;;
7487;SDS011;3785;52.260;4.728;2023-03-30T22:28:13;9.30;;;2.20;;
7487;SDS011;3785;52.260;4.728;2023-03-30T22:31:34;7.28;;;1.80;;
7487;SDS011;3785;52.260;4.728;2023-03-30T22:34:54;8.43;;;1.80;;
7487;SDS011;3785;52.260;4.728;2023-03-30T22:38:15;8.13;;;2.22;;
7487;SDS011;3785;52.260;4.728;2023-03-30T22:41:35;11.05;;;2.10;;
7487;SDS011;3785;52.260;4.728;2023-03-30T22:44:57;7.55;;;1.70;;
7487;SDS011;3785;52.260;4.728;2023-03-30T22:48:17;12.13;;;2.15;;
7487;SDS011;3785;52.260;4.728;2023-03-30T22:51:38;13.70;;;2.13;;
7487;SDS011;3785;52.260;4.728;2023-03-30T22:54:58;6.50;;;1.55;;
7487;SDS011;3785;52.260;4.728;2023-03-30T22:58:19;7.68;;;1.95;;
7487;SDS011;3785;52.260;4.728;2023-03-30T23:01:39;12.88;;;1.95;;
7487;SDS011;3785;52.260;4.728;2023-03-30T23:05:00;6.80;;;1.85;;
7487;SDS011;3785;52.260;4.728;2023-03-30T23:08:21;8.63;;;1.85;;
7487;SDS011;3785;52.260;4.728;2023-03-30T23:11:42;14.88;;;1.98;;
7487;SDS011;3785;52.260;4.728;2023-03-30T23:15:04;6.88;;;1.88;;
7487;SDS011;3785;52.260;4.728;2023-03-30T23:18:25;6.18;;;1.50;;
7487;SDS011;3785;52.260;4.728;2023-03-30T23:21:45;9.93;;;2.08;;
7487;SDS011;3785;52.260;4.728;2023-03-30T23:25:07;7.63;;;2.00;;
7487;SDS011;3785;52.260;4.728;2023-03-30T23:28:28;9.15;;;2.00;;
7487;SDS011;3785;52.260;4.728;2023-03-30T23:31:50;6.22;;;1.58;;
7487;SDS011;3785;52.260;4.728;2023-03-30T23:35:11;5.47;;;1.83;;
7487;SDS011;3785;52.260;4.728;2023-03-30T23:38:31;9.52;;;1.58;;
7487;SDS011;3785;52.260;4.728;2023-03-30T23:41:52;8.38;;;2.08;;